Time,TemperatureF,DewpointF,PressureIn,WindDirection,WindDirectionDegrees,WindSpeedMPH,WindSpeedGustMPH,Humidity,HourlyPrecipIn,Conditions,Clouds,dailyrainin,SoftwareType,DateUTC
2013-09-27 00:12:00,65.6,32.0,29.38,SSE,165,0.0,-999.0,29,-99.99,,,0.00,weatherlink.com 1.10,2013-09-27 06:12:00,
2013-09-27 00:27:00,65.0,33.0,29.38,SSE,158,2.0,-999.0,30,-99.99,,,0.00,weatherlink.com 1.10,2013-09-27 06:27:00,
2013-09-27 00:43:00,64.7,32.0,29.37,SE,131,1.0,-999.0,30,-99.99,,,0.00,weatherlink.com 1.10,2013-09-27 06:43:00,
2013-09-27 00:58:00,64.2,33.0,29.36,SE,136,2.0,-999.0,31,-99.99,,,0.00,weatherlink.com 1.10,2013-09-27 06:58:00,
2013-09-27 01:13:00,64.0,33.0,29.36,SE,144,0.0,-999.0,31,-99.99,,,0.00,weatherlink.com 1.10,2013-09-27 07:13:00,
2013-09-27 01:28:00,63.9,33.0,29.35,SE,131,4.0,-999.0,32,-99.99,,,0.00,weatherlink.com 1.10,2013-09-27 07:28:00,
2013-09-27 01:43:00,63.4,34.0,29.34,ESE,120,6.0,-999.0,34,-99.99,,,0.00,weatherlink.com 1.10,2013-09-27 07:43:00,
2013-09-27 01:58:00,63.5,34.0,29.33,SE,128,3.0,-999.0,34,-99.99,,,0.00,weatherlink.com 1.10,2013-09-27 07:58:00,
2013-09-27 02:13:00,63.5,34.0,29.33,SSE,148,4.0,-999.0,34,-99.99,,,0.00,weatherlink.com 1.10,2013-09-27 08:13:00,
2013-09-27 02:28:00,62.6,37.0,29.33,SSE,148,8.0,-999.0,39,-99.99,,,0.00,weatherlink.com 1.10,2013-09-27 08:28:00,
2013-09-27 02:43:00,63.5,40.0,29.32,SSE,160,11.0,-999.0,43,-99.99,,,0.00,weatherlink.com 1.10,2013-09-27 08:43:00,
2013-09-27 02:58:00,62.6,41.0,29.32,SW,225,6.0,-999.0,45,-99.99,,,0.00,weatherlink.com 1.10,2013-09-27 08:58:00,
2013-09-27 03:28:00,55.6,42.0,29.37,West,281,10.0,-999.0,60,-99.99,,,0.00,weatherlink.com 1.10,2013-09-27 09:28:00,
2013-09-27 03:43:00,53.5,43.0,29.41,West,271,8.0,-999.0,68,-99.99,,,0.00,weatherlink.com 1.10,2013-09-27 09:43:00,
2013-09-27 03:58:00,52.0,44.0,29.43,WNW,295,10.0,-999.0,74,-99.99,,,0.00,weatherlink.com 1.10,2013-09-27 09:58:00,
2013-09-27 04:13:00,51.0,43.0,29.44,West,280,10.0,-999.0,74,-99.99,,,0.00,weatherlink.com 1.10,2013-09-27 10:13:00,
2013-09-27 04:29:00,50.5,44.0,29.47,WNW,298,7.0,-999.0,79,-99.99,,,0.00,weatherlink.com 1.10,2013-09-27 10:29:00,
2013-09-27 04:45:00,49.5,44.0,29.49,NW,314,5.0,-999.0,80,-99.99,,,0.00,weatherlink.com 1.10,2013-09-27 10:45:00,
2013-09-27 05:00:00,48.8,44.0,29.49,NW,325,5.0,-999.0,83,-99.99,,,0.00,weatherlink.com 1.10,2013-09-27 11:00:00,
2013-09-27 05:15:00,48.3,44.0,29.49,NW,325,0.0,-999.0,85,-99.99,,,0.01,weatherlink.com 1.10,2013-09-27 11:15:00,
2013-09-27 05:30:00,48.2,44.0,29.48,WNW,288,3.0,-999.0,85,-99.99,,,0.01,weatherlink.com 1.10,2013-09-27 11:30:00,
2013-09-27 05:45:00,47.7,43.0,29.50,NNW,336,5.0,-999.0,82,-99.99,,,0.01,weatherlink.com 1.10,2013-09-27 11:45:00,
2013-09-27 06:00:00,47.4,42.0,29.51,NNW,336,2.0,-999.0,82,-99.99,,,0.02,weatherlink.com 1.10,2013-09-27 12:00:00,
2013-09-27 06:16:00,46.8,42.0,29.52,NNW,336,0.0,-999.0,83,-99.99,,,0.02,weatherlink.com 1.10,2013-09-27 12:16:00,
2013-09-27 06:29:00,46.7,42.0,29.53,NNW,336,0.0,-999.0,84,-99.99,,,0.04,weatherlink.com 1.10,2013-09-27 12:29:00,
2013-09-27 06:45:00,46.5,43.0,29.55,NNW,336,0.0,-999.0,86,-99.99,,,0.05,weatherlink.com 1.10,2013-09-27 12:45:00,
2013-09-27 07:00:00,46.5,43.0,29.55,NNW,336,0.0,-999.0,87,-99.99,,,0.05,weatherlink.com 1.10,2013-09-27 13:00:00,
2013-09-27 07:16:00,46.5,43.0,29.56,NNW,336,0.0,-999.0,88,-99.99,,,0.05,weatherlink.com 1.10,2013-09-27 13:16:00,
2013-09-27 07:31:00,46.5,44.0,29.56,NNW,336,0.0,-999.0,89,-99.99,,,0.05,weatherlink.com 1.10,2013-09-27 13:31:00,
2013-09-27 07:45:00,46.4,43.0,29.58,NNW,336,0.0,-999.0,89,-99.99,,,0.05,weatherlink.com 1.10,2013-09-27 13:45:00,
2013-09-27 08:00:00,47.0,44.0,29.58,NNW,336,0.0,-999.0,90,-99.99,,,0.05,weatherlink.com 1.10,2013-09-27 14:00:00,
2013-09-27 08:16:00,47.1,44.0,29.60,NNW,336,0.0,-999.0,89,-99.99,,,0.05,weatherlink.com 1.10,2013-09-27 14:16:00,
2013-09-27 08:31:00,47.1,44.0,29.60,NNW,336,0.0,-999.0,89,-99.99,,,0.05,weatherlink.com 1.10,2013-09-27 14:31:00,
2013-09-27 08:47:00,47.9,45.0,29.61,NNW,336,0.0,-999.0,89,-99.99,,,0.05,weatherlink.com 1.10,2013-09-27 14:47:00,
2013-09-27 09:02:00,47.9,45.0,29.62,NNW,336,0.0,-999.0,89,-99.99,,,0.05,weatherlink.com 1.10,2013-09-27 15:02:00,
2013-09-27 09:16:00,47.7,44.0,29.60,WNW,300,4.0,-999.0,87,-99.99,,,0.05,weatherlink.com 1.10,2013-09-27 15:16:00,
2013-09-27 09:31:00,47.0,42.0,29.64,WNW,290,4.0,-999.0,83,-99.99,,,0.05,weatherlink.com 1.10,2013-09-27 15:31:00,
2013-09-27 09:47:00,47.1,41.0,29.63,NW,304,3.0,-999.0,79,-99.99,,,0.05,weatherlink.com 1.10,2013-09-27 15:47:00,
2013-09-27 10:02:00,47.7,41.0,29.63,WNW,291,3.0,-999.0,77,-99.99,,,0.05,weatherlink.com 1.10,2013-09-27 16:02:00,
2013-09-27 10:18:00,48.0,40.0,29.63,WNW,290,0.0,-999.0,75,-99.99,,,0.05,weatherlink.com 1.10,2013-09-27 16:18:00,
2013-09-27 10:33:00,48.6,41.0,29.64,WNW,291,0.0,-999.0,75,-99.99,,,0.05,weatherlink.com 1.10,2013-09-27 16:33:00,
2013-09-27 10:47:00,49.2,41.0,29.64,West,280,0.0,-999.0,72,-99.99,,,0.05,weatherlink.com 1.10,2013-09-27 16:47:00,
2013-09-27 11:02:00,49.6,40.0,29.64,West,280,0.0,-999.0,70,-99.99,,,0.05,weatherlink.com 1.10,2013-09-27 17:02:00,
2013-09-27 11:18:00,50.2,42.0,29.64,West,280,0.0,-999.0,73,-99.99,,,0.05,weatherlink.com 1.10,2013-09-27 17:18:00,
2013-09-27 11:33:00,50.4,41.0,29.64,West,280,0.0,-999.0,71,-99.99,,,0.05,weatherlink.com 1.10,2013-09-27 17:33:00,
2013-09-27 11:47:00,50.2,41.0,29.64,West,279,0.0,-999.0,71,-99.99,,,0.05,weatherlink.com 1.10,2013-09-27 17:47:00,
2013-09-27 12:02:00,50.8,42.0,29.64,SSW,210,0.0,-999.0,71,-99.99,,,0.05,weatherlink.com 1.10,2013-09-27 18:02:00,
2013-09-27 12:18:00,51.3,41.0,29.63,WSW,239,0.0,-999.0,68,-99.99,,,0.05,weatherlink.com 1.10,2013-09-27 18:18:00,
2013-09-27 12:33:00,51.3,40.0,29.63,SW,224,5.0,-999.0,65,-99.99,,,0.05,weatherlink.com 1.10,2013-09-27 18:33:00,
2013-09-27 12:47:00,51.3,38.0,29.65,SW,226,11.0,-999.0,61,-99.99,,,0.05,weatherlink.com 1.10,2013-09-27 18:47:00,
2013-09-27 13:03:00,50.8,37.0,29.66,WSW,238,7.0,-999.0,60,-99.99,,,0.05,weatherlink.com 1.10,2013-09-27 19:03:00,
2013-09-27 13:18:00,51.4,38.0,29.67,WSW,252,5.0,-999.0,61,-99.99,,,0.05,weatherlink.com 1.10,2013-09-27 19:18:00,
2013-09-27 13:33:00,51.9,36.0,29.67,WSW,241,6.0,-999.0,55,-99.99,,,0.05,weatherlink.com 1.10,2013-09-27 19:33:00,
2013-09-27 13:48:00,53.6,37.0,29.64,WSW,238,4.0,-999.0,53,-99.99,,,0.05,weatherlink.com 1.10,2013-09-27 19:48:00,
2013-09-27 14:04:00,53.8,35.0,29.64,WNW,292,3.0,-999.0,50,-99.99,,,0.05,weatherlink.com 1.10,2013-09-27 20:04:00,
2013-09-27 14:19:00,55.0,32.0,29.64,SW,231,0.0,-999.0,42,-99.99,,,0.05,weatherlink.com 1.10,2013-09-27 20:19:00,
2013-09-27 14:33:00,56.7,28.0,29.65,WSW,254,9.0,-999.0,34,-99.99,,,0.05,weatherlink.com 1.10,2013-09-27 20:33:00,
2013-09-27 14:49:00,56.7,29.0,29.65,West,280,6.0,-999.0,35,-99.99,,,0.05,weatherlink.com 1.10,2013-09-27 20:49:00,
2013-09-27 15:04:00,56.6,29.0,29.66,WSW,242,10.0,-999.0,35,-99.99,,,0.05,weatherlink.com 1.10,2013-09-27 21:04:00,
2013-09-27 15:20:00,56.6,27.0,29.66,West,267,11.0,-999.0,32,-99.99,,,0.05,weatherlink.com 1.10,2013-09-27 21:20:00,
2013-09-27 15:35:00,56.9,26.0,29.70,WSW,244,9.0,-999.0,30,-99.99,,,0.05,weatherlink.com 1.10,2013-09-27 21:35:00,
2013-09-27 15:49:00,56.9,24.0,29.71,WSW,250,7.0,-999.0,28,-99.99,,,0.05,weatherlink.com 1.10,2013-09-27 21:49:00,
2013-09-27 16:06:00,57.3,24.0,29.71,SW,225,6.0,-999.0,28,-99.99,,,0.05,weatherlink.com 1.10,2013-09-27 22:06:00,
2013-09-27 16:20:00,58.3,22.0,29.71,WNW,285,5.0,-999.0,25,-99.99,,,0.05,weatherlink.com 1.10,2013-09-27 22:20:00,
2013-09-27 16:35:00,57.6,23.0,29.73,WSW,244,4.0,-999.0,26,-99.99,,,0.05,weatherlink.com 1.10,2013-09-27 22:35:00,
2013-09-27 16:51:00,57.6,20.0,29.73,WSW,257,11.0,-999.0,23,-99.99,,,0.05,weatherlink.com 1.10,2013-09-27 22:51:00,
2013-09-27 17:06:00,57.5,19.0,29.74,WSW,250,11.0,-999.0,22,-99.99,,,0.05,weatherlink.com 1.10,2013-09-27 23:06:00,
2013-09-27 17:20:00,57.5,19.0,29.74,West,262,9.0,-999.0,22,-99.99,,,0.05,weatherlink.com 1.10,2013-09-27 23:20:00,
2013-09-27 17:35:00,57.5,17.0,29.76,NW,304,7.0,-999.0,20,-99.99,,,0.05,weatherlink.com 1.10,2013-09-27 23:35:00,
2013-09-27 17:50:00,57.3,17.0,29.77,WSW,246,10.0,-999.0,21,-99.99,,,0.05,weatherlink.com 1.10,2013-09-27 23:50:00,
2013-09-27 18:06:00,57.2,20.0,29.78,West,278,5.0,-999.0,23,-99.99,,,0.05,weatherlink.com 1.10,2013-09-28 00:06:00,
2013-09-27 18:21:00,56.3,17.0,29.78,WNW,283,7.0,-999.0,21,-99.99,,,0.05,weatherlink.com 1.10,2013-09-28 00:21:00,
2013-09-27 18:37:00,55.9,18.0,29.80,West,278,3.0,-999.0,23,-99.99,,,0.05,weatherlink.com 1.10,2013-09-28 00:37:00,
2013-09-27 18:52:00,54.8,18.0,29.80,WSW,243,7.0,-999.0,24,-99.99,,,0.05,weatherlink.com 1.10,2013-09-28 00:52:00,
2013-09-27 19:07:00,53.6,19.0,29.82,West,276,4.0,-999.0,26,-99.99,,,0.05,weatherlink.com 1.10,2013-09-28 01:07:00,
2013-09-27 19:21:00,53.1,20.0,29.82,West,261,3.0,-999.0,27,-99.99,,,0.05,weatherlink.com 1.10,2013-09-28 01:21:00,
2013-09-27 19:36:00,52.0,19.0,29.84,West,259,4.0,-999.0,27,-99.99,,,0.05,weatherlink.com 1.10,2013-09-28 01:36:00,
2013-09-27 19:51:00,51.1,20.0,29.85,West,260,3.0,-999.0,29,-99.99,,,0.05,weatherlink.com 1.10,2013-09-28 01:51:00,
2013-09-27 20:06:00,50.2,20.0,29.87,West,259,0.0,-999.0,30,-99.99,,,0.05,weatherlink.com 1.10,2013-09-28 02:06:00,
2013-09-27 20:21:00,47.4,23.0,29.89,WNW,295,0.0,-999.0,39,-99.99,,,0.05,weatherlink.com 1.10,2013-09-28 02:21:00,
2013-09-27 20:36:00,46.0,26.0,29.90,WNW,295,0.0,-999.0,45,-99.99,,,0.05,weatherlink.com 1.10,2013-09-28 02:36:00,
2013-09-27 20:51:00,44.3,28.0,29.91,WNW,295,0.0,-999.0,53,-99.99,,,0.05,weatherlink.com 1.10,2013-09-28 02:51:00,
2013-09-27 21:06:00,44.6,27.0,29.92,WNW,295,0.0,-999.0,50,-99.99,,,0.05,weatherlink.com 1.10,2013-09-28 03:06:00,
2013-09-27 21:21:00,43.8,27.0,29.93,WNW,295,0.0,-999.0,53,-99.99,,,0.05,weatherlink.com 1.10,2013-09-28 03:21:00,
2013-09-27 21:36:00,44.5,29.0,29.93,NW,309,0.0,-999.0,54,-99.99,,,0.05,weatherlink.com 1.10,2013-09-28 03:36:00,
2013-09-27 21:51:00,43.5,29.0,29.93,NW,309,0.0,-999.0,56,-99.99,,,0.05,weatherlink.com 1.10,2013-09-28 03:51:00,
2013-09-27 22:06:00,41.6,29.0,29.94,NW,309,0.0,-999.0,62,-99.99,,,0.05,weatherlink.com 1.10,2013-09-28 04:06:00,
2013-09-27 22:21:00,40.3,30.0,29.96,NW,309,0.0,-999.0,66,-99.99,,,0.05,weatherlink.com 1.10,2013-09-28 04:21:00,
2013-09-27 22:36:00,40.9,31.0,29.95,NNE,19,2.0,-999.0,67,-99.99,,,0.05,weatherlink.com 1.10,2013-09-28 04:36:00,
2013-09-27 22:51:00,41.2,31.0,29.95,NNE,19,1.0,-999.0,67,-99.99,,,0.05,weatherlink.com 1.10,2013-09-28 04:51:00,
2013-09-27 23:06:00,39.9,30.0,29.96,NNE,19,1.0,-999.0,68,-99.99,,,0.05,weatherlink.com 1.10,2013-09-28 05:06:00,
2013-09-27 23:21:00,38.0,29.0,29.97,NNE,19,0.0,-999.0,71,-99.99,,,0.05,weatherlink.com 1.10,2013-09-28 05:21:00,
2013-09-27 23:37:00,37.0,29.0,29.97,NNE,19,0.0,-999.0,74,-99.99,,,0.05,weatherlink.com 1.10,2013-09-28 05:37:00,
2013-09-27 23:52:00,36.6,30.0,29.97,NNE,19,0.0,-999.0,76,-99.99,,,0.05,weatherlink.com 1.10,2013-09-28 05:52:00,